createdAt,value
2022-09-15T00:02:17.177Z,9.10
2022-09-15T00:05:20.280Z,8.00
2022-09-15T00:08:24.698Z,13.33
2022-09-15T00:11:31.937Z,13.27
2022-09-15T00:14:35.057Z,13.85
2022-09-15T00:17:38.387Z,5.30
2022-09-15T00:20:43.382Z,5.70
2022-09-15T00:23:48.460Z,3.90
2022-09-15T00:26:51.803Z,5.57
2022-09-15T00:29:56.109Z,3.65
2022-09-15T00:32:59.426Z,4.40
2022-09-15T00:36:06.485Z,3.80
2022-09-15T00:39:10.092Z,3.83
2022-09-15T00:42:22.665Z,3.92
2022-09-15T00:45:26.238Z,6.43
2022-09-15T00:48:30.606Z,5.32
2022-09-15T00:51:41.801Z,4.20
2022-09-15T00:55:02.781Z,7.50
2022-09-15T00:58:09.402Z,5.82
2022-09-15T01:01:15.481Z,3.80
2022-09-15T01:04:18.712Z,3.83
2022-09-15T01:07:35.876Z,3.20
2022-09-15T01:10:41.796Z,4.67
2022-09-15T01:13:46.111Z,3.10
2022-09-15T01:17:12.631Z,4.07
2022-09-15T01:20:53.337Z,3.78
2022-09-15T01:24:20.939Z,3.87
2022-09-15T01:28:01.152Z,3.40
2022-09-15T01:31:10.348Z,4.40
2022-09-15T01:34:19.830Z,4.45
2022-09-15T01:37:31.745Z,3.78
2022-09-15T01:40:51.040Z,3.47
2022-09-15T01:44:03.044Z,6.17
2022-09-15T01:47:10.731Z,6.75
2022-09-15T01:50:24.038Z,9.57
2022-09-15T01:53:28.827Z,4.70
2022-09-15T01:56:33.185Z,3.07
2022-09-15T01:59:36.829Z,7.77
2022-09-15T02:02:46.360Z,5.07
2022-09-15T02:06:03.223Z,11.50
2022-09-15T02:09:22.419Z,6.82
2022-09-15T02:12:37.794Z,4.80
2022-09-15T02:15:48.906Z,2.70
2022-09-15T02:19:36.794Z,5.38
2022-09-15T02:22:41.836Z,14.55
2022-09-15T02:25:52.161Z,4.88
2022-09-15T02:28:59.865Z,7.00
2022-09-15T02:32:07.437Z,6.53
2022-09-15T02:35:12.491Z,23.48
2022-09-15T02:38:16.113Z,5.78
2022-09-15T02:41:20.481Z,4.45
2022-09-15T02:44:24.192Z,3.97
2022-09-15T02:47:31.939Z,7.53
2022-09-15T02:50:34.859Z,4.18
2022-09-15T02:53:38.253Z,9.80
2022-09-15T02:56:41.917Z,6.90
2022-09-15T03:00:04.036Z,5.43
2022-09-15T03:03:10.174Z,6.00
2022-09-15T03:06:21.838Z,6.35
2022-09-15T03:09:25.235Z,9.60
2022-09-15T03:12:29.555Z,6.90
2022-09-15T03:15:34.252Z,5.60
2022-09-15T03:18:39.119Z,6.00
2022-09-15T03:21:42.510Z,6.20
2022-09-15T03:24:45.555Z,7.63
2022-09-15T03:27:48.835Z,6.90
2022-09-15T03:30:51.802Z,4.60
2022-09-15T03:33:56.563Z,7.77
2022-09-15T03:37:00.202Z,11.23
2022-09-15T03:40:04.459Z,7.53
2022-09-15T03:43:08.570Z,4.10
2022-09-15T03:46:12.875Z,9.13
2022-09-15T03:49:16.981Z,6.77
2022-09-15T03:52:20.628Z,7.47
2022-09-15T03:55:24.478Z,6.43
2022-09-15T03:58:30.734Z,16.30
2022-09-15T04:01:35.795Z,5.40
2022-09-15T04:04:39.554Z,6.57
2022-09-15T04:07:43.655Z,5.43
2022-09-15T04:10:46.841Z,9.05
2022-09-15T04:13:51.340Z,7.13
2022-09-15T04:16:55.323Z,4.80
2022-09-15T04:19:59.309Z,6.13
2022-09-15T04:23:02.972Z,5.85
2022-09-15T04:26:10.736Z,4.57
2022-09-15T04:29:17.959Z,7.10
2022-09-15T04:32:22.902Z,7.73
2022-09-15T04:35:26.688Z,8.67
2022-09-15T04:38:30.930Z,8.98
2022-09-15T04:41:35.058Z,5.07
2022-09-15T04:44:39.091Z,6.45
2022-09-15T04:47:42.871Z,4.47
2022-09-15T04:50:47.089Z,5.30
2022-09-15T04:53:52.238Z,4.72
2022-09-15T04:56:55.693Z,4.63
2022-09-15T04:59:59.326Z,4.05
2022-09-15T05:03:03.586Z,3.80
2022-09-15T05:06:09.451Z,8.67
2022-09-15T05:09:15.140Z,3.70
2022-09-15T05:12:19.205Z,4.35
2022-09-15T05:15:22.969Z,4.60
2022-09-15T05:18:27.114Z,6.93
2022-09-15T05:21:31.431Z,3.37
2022-09-15T05:24:35.189Z,4.45
2022-09-15T05:27:40.190Z,5.07
2022-09-15T05:30:44.524Z,3.80
2022-09-15T05:33:50.247Z,4.77
2022-09-15T05:36:53.935Z,3.87
2022-09-15T05:40:01.782Z,4.55
2022-09-15T05:43:06.832Z,5.50
2022-09-15T05:46:11.768Z,3.95
2022-09-15T05:49:15.520Z,6.93
2022-09-15T05:52:19.410Z,5.73
2022-09-15T05:55:23.793Z,5.72
2022-09-15T05:58:27.451Z,4.60
2022-09-15T06:01:32.229Z,4.10
2022-09-15T06:04:35.943Z,3.23
2022-09-15T06:07:40.361Z,4.73
2022-09-15T06:10:44.017Z,7.03
2022-09-15T06:13:48.375Z,4.65
2022-09-15T06:16:52.098Z,5.60
2022-09-15T06:19:55.955Z,4.20
2022-09-15T06:23:00.060Z,3.20
2022-09-15T06:26:19.509Z,3.55
2022-09-15T06:29:22.337Z,7.93
2022-09-15T06:32:25.663Z,4.22
2022-09-15T06:35:29.343Z,5.87
2022-09-15T06:38:32.755Z,5.30
2022-09-15T06:42:00.772Z,3.88
2022-09-15T06:45:05.379Z,3.75
2022-09-15T06:48:24.011Z,4.72
2022-09-15T06:51:32.187Z,4.67
2022-09-15T06:54:35.823Z,5.17
2022-09-15T06:57:39.825Z,4.57
2022-09-15T07:00:43.728Z,5.75
2022-09-15T07:03:48.032Z,7.00
2022-09-15T07:06:51.647Z,4.17
2022-09-15T07:09:56.596Z,7.10
2022-09-15T07:13:01.804Z,5.88
2022-09-15T07:16:08.233Z,5.45
2022-09-15T07:19:12.231Z,4.53
2022-09-15T07:22:16.288Z,5.77
2022-09-15T07:25:20.008Z,7.53
2022-09-15T07:28:24.041Z,6.15
2022-09-15T07:31:30.275Z,3.67
2022-09-15T07:34:34.777Z,4.38
2022-09-15T07:37:38.960Z,4.80
2022-09-15T07:40:43.073Z,6.80
2022-09-15T07:43:55.023Z,6.10
2022-09-15T07:46:58.332Z,7.18
2022-09-15T07:50:02.111Z,5.38
2022-09-15T07:53:06.155Z,3.93
2022-09-15T07:56:09.966Z,6.73
2022-09-15T07:59:13.645Z,5.10
2022-09-15T08:02:19.587Z,4.35
2022-09-15T08:05:28.915Z,7.63
2022-09-15T08:08:32.781Z,4.70
2022-09-15T08:11:36.477Z,4.53
2022-09-15T08:14:39.520Z,4.72
2022-09-15T08:17:43.414Z,4.20
2022-09-15T08:20:47.042Z,2.97
2022-09-15T08:23:59.072Z,4.90
2022-09-15T08:27:02.039Z,3.40
2022-09-15T08:30:07.742Z,5.13
2022-09-15T08:33:11.418Z,6.20
2022-09-15T08:36:14.555Z,5.50
2022-09-15T08:39:17.512Z,7.27
2022-09-15T08:42:22.889Z,5.07
2022-09-15T08:45:36.769Z,7.60
2022-09-15T08:48:47.030Z,7.20
2022-09-15T08:51:52.744Z,9.30
2022-09-15T08:54:59.840Z,5.73
2022-09-15T08:58:04.167Z,4.93
2022-09-15T09:01:18.697Z,6.13
2022-09-15T09:04:40.263Z,5.82
2022-09-15T09:08:20.242Z,4.63
2022-09-15T09:11:55.528Z,4.87
2022-09-15T09:15:07.812Z,5.47
2022-09-15T09:18:54.044Z,4.25
2022-09-15T09:22:04.259Z,3.95
2022-09-15T09:25:26.817Z,6.25
2022-09-15T09:28:59.382Z,5.70
2022-09-15T09:32:04.249Z,5.33
2022-09-15T09:35:32.109Z,6.13
2022-09-15T09:38:40.277Z,6.45
2022-09-15T09:41:45.528Z,4.60
2022-09-15T09:44:49.165Z,6.97
2022-09-15T09:47:56.340Z,6.20
2022-09-15T09:51:01.278Z,5.30
2022-09-15T09:54:16.780Z,6.25
2022-09-15T09:57:35.101Z,6.88
2022-09-15T10:00:42.407Z,4.40
2022-09-15T10:03:46.366Z,6.20
2022-09-15T10:06:50.514Z,6.63
2022-09-15T10:09:59.567Z,6.13
2022-09-15T10:13:04.791Z,5.10
2022-09-15T10:16:08.242Z,6.33
2022-09-15T10:19:15.609Z,7.50
2022-09-15T10:22:40.952Z,8.90
2022-09-15T10:25:58.706Z,6.45
2022-09-15T10:29:16.102Z,7.78
2022-09-15T10:32:28.943Z,10.00
2022-09-15T10:35:34.032Z,9.37
2022-09-15T10:38:46.469Z,10.88
2022-09-15T10:42:05.509Z,10.02
2022-09-15T10:45:17.176Z,9.15
2022-09-15T10:48:20.237Z,11.10
2022-09-15T10:51:32.180Z,13.47
2022-09-15T10:55:09.199Z,10.48
2022-09-15T10:58:39.913Z,12.60
2022-09-15T11:02:02.038Z,13.98
2022-09-15T11:05:31.772Z,11.13
2022-09-15T11:09:06.912Z,8.63
2022-09-15T11:12:44.049Z,12.57
2022-09-15T11:16:29.023Z,9.55
2022-09-15T11:19:35.177Z,6.03
2022-09-15T11:22:49.449Z,9.33
2022-09-15T11:26:05.056Z,9.00
2022-09-15T11:29:38.091Z,7.78
2022-09-15T11:32:52.860Z,8.40
2022-09-15T11:36:04.387Z,9.50
2022-09-15T11:39:17.629Z,10.77
2022-09-15T11:42:31.519Z,10.87
2022-09-15T11:45:46.994Z,10.18
2022-09-15T11:49:05.274Z,9.00
2022-09-15T11:52:15.785Z,6.50
2022-09-15T11:55:28.861Z,8.37
2022-09-15T11:58:45.006Z,12.13
2022-09-15T12:01:51.622Z,8.63
2022-09-15T12:05:14.955Z,7.50
2022-09-15T12:08:28.184Z,6.32
2022-09-15T12:11:39.321Z,7.73
2022-09-15T12:14:48.623Z,12.83
2022-09-15T12:18:06.431Z,7.93
2022-09-15T12:21:39.510Z,11.60
2022-09-15T12:25:07.479Z,9.57
2022-09-15T12:28:23.283Z,9.60
2022-09-15T12:31:37.188Z,11.00
2022-09-15T12:34:40.194Z,10.57
2022-09-15T12:37:47.689Z,8.82
2022-09-15T12:41:00.063Z,8.23
2022-09-15T12:44:13.358Z,9.30
2022-09-15T12:47:29.197Z,9.27
2022-09-15T12:50:37.395Z,11.90
2022-09-15T12:53:53.499Z,10.35
2022-09-15T12:56:58.679Z,12.63
2022-09-15T13:00:33.427Z,11.07
2022-09-15T13:07:20.384Z,12.07
2022-09-15T13:10:31.150Z,12.85
2022-09-15T13:13:53.157Z,12.38
2022-09-15T13:17:08.097Z,8.80
2022-09-15T13:20:19.071Z,11.90
2022-09-15T13:23:26.663Z,12.95
2022-09-15T13:26:32.693Z,11.40
2022-09-15T13:29:48.089Z,12.98
2022-09-15T13:32:57.614Z,12.83
2022-09-15T13:40:46.394Z,12.60
2022-09-15T13:44:13.084Z,13.73
2022-09-15T13:47:16.010Z,11.52
2022-09-15T13:50:26.515Z,13.17
2022-09-15T13:53:48.185Z,12.23
2022-09-15T13:56:54.208Z,12.95
2022-09-15T13:59:58.652Z,12.32
2022-09-15T14:03:12.735Z,13.20
2022-09-15T14:06:21.722Z,16.97
2022-09-15T14:09:29.320Z,19.03
2022-09-15T14:12:35.932Z,11.60
2022-09-15T14:15:40.108Z,10.60
2022-09-15T14:18:44.976Z,8.98
2022-09-15T14:21:56.232Z,11.57
2022-09-15T14:25:07.568Z,9.33
2022-09-15T14:28:20.361Z,9.70
2022-09-15T14:31:37.472Z,8.52
2022-09-15T14:34:43.244Z,7.32
2022-09-15T14:38:04.699Z,8.20
2022-09-15T14:41:20.287Z,7.83
2022-09-15T14:48:15.837Z,4.18
2022-09-15T14:51:25.894Z,6.20
2022-09-15T14:54:37.295Z,7.27
2022-09-15T15:01:10.899Z,6.10
2022-09-15T15:04:21.203Z,5.28
2022-09-15T15:07:29.749Z,5.88
2022-09-15T15:10:36.001Z,9.37
2022-09-15T15:13:43.137Z,12.93
2022-09-15T15:17:02.878Z,10.98
2022-09-15T15:20:09.621Z,7.43
2022-09-15T15:23:29.223Z,4.72
2022-09-15T15:26:38.703Z,5.20
2022-09-15T15:29:46.994Z,5.07
2022-09-15T15:32:50.140Z,3.88
2022-09-15T15:36:08.138Z,2.83
2022-09-15T15:39:25.106Z,2.58
2022-09-15T15:42:29.869Z,5.00
2022-09-15T15:45:47.973Z,6.00
2022-09-15T15:48:53.371Z,2.80
2022-09-15T15:51:58.996Z,5.13
2022-09-15T15:55:01.997Z,5.80
2022-09-15T15:58:06.105Z,2.43
2022-09-15T16:01:12.888Z,2.20
2022-09-15T16:04:16.625Z,3.30
2022-09-15T16:07:23.779Z,2.17
2022-09-15T16:10:30.596Z,4.38
2022-09-15T16:13:33.585Z,4.07
2022-09-15T16:16:36.613Z,2.97
2022-09-15T16:19:40.962Z,3.88
2022-09-15T16:22:44.844Z,4.78
2022-09-15T16:26:03.489Z,1.70
2022-09-15T16:29:06.944Z,2.33
2022-09-15T16:32:31.967Z,2.20
2022-09-15T16:35:57.047Z,4.07
2022-09-15T16:39:00.310Z,2.38
2022-09-15T16:42:04.105Z,2.42
2022-09-15T16:45:36.601Z,4.90
2022-09-15T16:48:44.575Z,2.27
2022-09-15T16:51:48.459Z,1.67
2022-09-15T16:54:52.101Z,3.95
2022-09-15T16:57:56.132Z,2.30
2022-09-15T17:00:59.682Z,1.60
2022-09-15T17:04:03.988Z,1.60
2022-09-15T17:07:06.921Z,1.85
2022-09-15T17:10:09.956Z,2.15
2022-09-15T17:13:18.789Z,1.95
2022-09-15T17:16:22.031Z,1.33
2022-09-15T17:19:25.278Z,1.40
2022-09-15T17:22:28.447Z,1.83
2022-09-15T17:25:36.492Z,2.17
2022-09-15T17:28:40.066Z,1.83
2022-09-15T17:31:43.402Z,1.70
2022-09-15T17:34:47.160Z,1.53
2022-09-15T17:37:51.872Z,1.35
2022-09-15T17:40:58.122Z,1.73
2022-09-15T17:44:01.223Z,1.42
2022-09-15T17:47:04.444Z,1.23
2022-09-15T17:50:08.084Z,1.37
2022-09-15T17:53:14.064Z,2.35
2022-09-15T17:56:17.752Z,2.05
2022-09-15T17:59:20.705Z,1.40
2022-09-15T18:02:24.672Z,0.90
2022-09-15T18:05:34.456Z,2.33
2022-09-15T18:08:38.613Z,0.90
2022-09-15T18:11:41.667Z,0.80
2022-09-15T18:14:45.208Z,1.33
2022-09-15T18:17:53.255Z,1.17
2022-09-15T18:20:58.793Z,0.97
2022-09-15T18:24:02.688Z,1.70
2022-09-15T18:27:07.208Z,2.20
2022-09-15T18:30:11.892Z,0.88
2022-09-15T18:33:20.679Z,4.63
2022-09-15T18:36:24.378Z,1.53
2022-09-15T18:39:27.841Z,1.88
2022-09-15T18:42:32.052Z,1.38
2022-09-15T18:45:35.638Z,1.33
2022-09-15T18:48:38.651Z,1.30
2022-09-15T18:51:57.782Z,1.50
2022-09-15T18:55:15.215Z,1.17
2022-09-15T18:58:20.279Z,1.20
2022-09-15T19:01:24.052Z,1.33
2022-09-15T19:04:31.840Z,1.67
2022-09-15T19:07:37.351Z,1.08
2022-09-15T19:10:43.515Z,2.63
2022-09-15T19:13:47.206Z,3.73
2022-09-15T19:16:57.746Z,0.80
2022-09-15T19:20:02.357Z,1.60
2022-09-15T19:23:05.598Z,3.45
2022-09-15T19:26:16.379Z,0.80
2022-09-15T19:29:19.825Z,1.87
2022-09-15T19:32:23.282Z,1.80
2022-09-15T19:35:26.945Z,1.27
2022-09-15T19:38:30.641Z,0.93
2022-09-15T19:41:34.360Z,1.35
2022-09-15T19:44:37.921Z,1.50
2022-09-15T19:47:41.114Z,1.53
2022-09-15T19:50:44.439Z,1.00
2022-09-15T19:53:48.110Z,1.30
2022-09-15T19:56:52.716Z,3.40
2022-09-15T19:59:55.674Z,0.87
2022-09-15T20:02:58.932Z,1.67
2022-09-15T20:06:06.384Z,1.52
2022-09-15T20:09:11.162Z,1.50
2022-09-15T20:12:15.077Z,1.38
2022-09-15T20:15:19.401Z,1.73
2022-09-15T20:18:23.297Z,1.07
2022-09-15T20:21:49.258Z,2.72
2022-09-15T20:24:53.081Z,0.90
2022-09-15T20:27:57.292Z,1.00
2022-09-15T20:31:06.247Z,0.90
2022-09-15T20:34:10.015Z,0.80
2022-09-15T20:37:14.059Z,0.93
2022-09-15T20:40:17.933Z,1.58
2022-09-15T20:43:22.352Z,1.70
2022-09-15T20:46:26.381Z,1.17
2022-09-15T20:49:30.465Z,3.03
2022-09-15T20:52:38.283Z,1.27
2022-09-15T20:55:49.542Z,1.30
2022-09-15T20:58:54.274Z,1.85
2022-09-15T21:01:58.180Z,1.57
2022-09-15T21:05:01.287Z,2.57
2022-09-15T21:08:04.480Z,2.03
2022-09-15T21:11:11.558Z,1.73
2022-09-15T21:14:15.608Z,1.70
2022-09-15T21:17:19.336Z,1.60
2022-09-15T21:20:23.188Z,1.30
2022-09-15T21:23:27.828Z,1.77
2022-09-15T21:26:36.481Z,3.47
2022-09-15T21:29:39.872Z,1.90
2022-09-15T21:32:42.969Z,1.47
2022-09-15T21:35:49.982Z,1.40
2022-09-15T21:38:55.092Z,1.15
2022-09-15T21:41:58.593Z,3.05
2022-09-15T21:45:02.235Z,1.15
2022-09-15T21:48:05.958Z,1.43
2022-09-15T21:51:11.007Z,0.80
2022-09-15T21:54:14.418Z,4.32
2022-09-15T21:57:17.494Z,2.47
2022-09-15T22:00:21.289Z,3.15
2022-09-15T22:03:24.577Z,4.00
2022-09-15T22:06:34.127Z,4.07
2022-09-15T22:09:39.214Z,3.22
2022-09-15T22:12:42.530Z,6.57
2022-09-15T22:15:45.494Z,5.35
2022-09-15T22:18:50.355Z,3.57
2022-09-15T22:21:53.730Z,2.13
2022-09-15T22:24:56.674Z,3.13
2022-09-15T22:27:59.645Z,1.77
2022-09-15T22:31:05.649Z,5.00
2022-09-15T22:34:09.128Z,6.33
2022-09-15T22:37:12.078Z,3.70
2022-09-15T22:40:17.885Z,9.75
2022-09-15T22:43:22.221Z,5.70
2022-09-15T22:46:26.788Z,5.78
2022-09-15T22:49:30.014Z,6.77
2022-09-15T22:52:33.294Z,7.70
2022-09-15T22:55:36.339Z,5.90
2022-09-15T22:58:44.199Z,4.72
2022-09-15T23:01:48.060Z,2.80
2022-09-15T23:04:51.369Z,7.60
2022-09-15T23:07:54.391Z,14.60
2022-09-15T23:11:03.455Z,4.38
2022-09-15T23:14:08.151Z,11.25
2022-09-15T23:17:11.451Z,4.63
2022-09-15T23:20:15.049Z,4.67
2022-09-15T23:23:18.349Z,11.40
2022-09-15T23:26:24.323Z,11.75
2022-09-15T23:29:27.738Z,6.40
2022-09-15T23:32:31.327Z,7.15
2022-09-15T23:35:34.533Z,6.03
2022-09-15T23:38:40.345Z,4.50
2022-09-15T23:41:44.594Z,6.47
2022-09-15T23:44:48.342Z,5.20
2022-09-15T23:47:52.597Z,5.93
2022-09-15T23:50:56.334Z,6.97
2022-09-15T23:54:00.320Z,9.07
2022-09-15T23:57:04.116Z,6.97
